createdAt,value
2022-10-30T00:00:37.607Z,78.08
2022-10-30T00:03:04.419Z,77.97
2022-10-30T00:05:31.459Z,77.83
2022-10-30T00:07:58.873Z,77.63
2022-10-30T00:10:26.086Z,77.69
2022-10-30T00:13:03.163Z,77.66
2022-10-30T00:15:43.608Z,77.43
2022-10-30T00:18:15.137Z,77.69
2022-10-30T00:20:41.922Z,77.61
2022-10-30T00:23:08.668Z,77.71
2022-10-30T00:25:36.697Z,77.55
2022-10-30T00:28:10.200Z,77.61
2022-10-30T00:30:37.553Z,77.68
2022-10-30T00:33:04.641Z,77.84
2022-10-30T00:35:31.721Z,77.69
2022-10-30T00:38:00.799Z,77.38
2022-10-30T00:40:28.341Z,77.40
2022-10-30T00:42:56.066Z,77.70
2022-10-30T00:45:22.831Z,77.25
2022-10-30T00:47:58.566Z,77.52
2022-10-30T00:50:34.825Z,77.75
2022-10-30T00:53:17.513Z,77.77
2022-10-30T00:55:59.007Z,78.31
2022-10-30T00:58:31.878Z,77.80
2022-10-30T01:01:10.263Z,78.02
2022-10-30T01:06:49.123Z,78.15
2022-10-30T01:09:16.070Z,78.25
2022-10-30T01:11:53.948Z,77.99
2022-10-30T01:14:28.924Z,78.00
2022-10-30T01:17:28.967Z,78.21
2022-10-30T01:20:28.535Z,77.87
2022-10-30T01:23:10.291Z,77.75
2022-10-30T01:26:04.269Z,78.15
2022-10-30T01:29:13.446Z,77.99
2022-10-30T01:31:43.259Z,77.47
2022-10-30T01:34:20.696Z,77.48
2022-10-30T01:37:02.018Z,77.55
2022-10-30T01:39:33.543Z,77.83
2022-10-30T01:42:10.035Z,78.00
2022-10-30T01:44:40.007Z,78.41
2022-10-30T01:47:44.875Z,77.91
2022-10-30T01:50:32.794Z,77.77
2022-10-30T01:53:09.807Z,78.08
2022-10-30T01:55:43.979Z,78.49
2022-10-30T01:58:31.447Z,77.88
2022-10-30T02:00:59.261Z,77.76
2022-10-30T02:03:26.846Z,77.87
2022-10-30T02:05:55.546Z,78.05
2022-10-30T02:08:23.791Z,77.83
2022-10-30T02:10:57.475Z,77.82
2022-10-30T02:13:37.229Z,77.58
2022-10-30T02:16:04.128Z,76.90
2022-10-30T02:18:34.889Z,76.76
2022-10-30T02:21:02.637Z,76.79
2022-10-30T02:23:29.477Z,76.86
2022-10-30T02:25:56.186Z,76.87
2022-10-30T02:28:22.786Z,76.83
2022-10-30T02:30:49.664Z,76.64
2022-10-30T02:35:44.976Z,76.50
2022-10-30T02:38:12.135Z,76.28
2022-10-30T02:40:38.903Z,76.29
2022-10-30T02:43:07.472Z,76.73
2022-10-30T02:45:34.163Z,76.73
2022-10-30T02:48:01.624Z,76.21
2022-10-30T02:50:29.275Z,76.08
2022-10-30T02:52:56.352Z,75.87
2022-10-30T02:55:23.273Z,75.48
2022-10-30T02:57:52.492Z,75.64
2022-10-30T03:00:19.227Z,75.78
2022-10-30T03:02:45.900Z,75.93
2022-10-30T03:05:12.958Z,76.09
2022-10-30T03:07:39.559Z,76.26
2022-10-30T03:10:06.510Z,76.18
2022-10-30T03:12:33.320Z,76.31
2022-10-30T03:14:59.928Z,76.27
2022-10-30T03:17:26.781Z,76.25
2022-10-30T03:19:53.714Z,76.59
2022-10-30T03:22:21.204Z,76.34
2022-10-30T03:24:47.821Z,76.25
2022-10-30T03:27:14.450Z,76.38
2022-10-30T03:29:41.108Z,76.49
2022-10-30T03:32:12.584Z,76.63
2022-10-30T03:34:50.631Z,76.13
2022-10-30T03:37:18.874Z,75.93
2022-10-30T03:39:45.773Z,76.27
2022-10-30T03:42:15.813Z,76.52
2022-10-30T03:44:42.852Z,76.37
2022-10-30T03:47:12.749Z,76.72
2022-10-30T03:49:41.527Z,76.41
2022-10-30T03:52:12.355Z,76.37
2022-10-30T03:54:39.038Z,76.66
2022-10-30T03:57:15.512Z,76.90
2022-10-30T04:00:00.454Z,76.98
2022-10-30T04:02:56.388Z,76.52
2022-10-30T04:05:29.419Z,77.01
2022-10-30T04:08:05.512Z,76.89
2022-10-30T04:10:35.701Z,77.46
2022-10-30T04:13:07.545Z,78.04
2022-10-30T04:15:37.832Z,78.13
2022-10-30T04:18:06.961Z,77.65
2022-10-30T04:20:37.278Z,77.35
2022-10-30T04:23:22.627Z,77.56
2022-10-30T04:25:49.583Z,77.42
2022-10-30T04:29:17.555Z,77.79
2022-10-30T04:31:44.823Z,77.98
2022-10-30T04:34:12.402Z,77.74
2022-10-30T04:36:39.103Z,77.43
2022-10-30T04:39:05.803Z,77.61
2022-10-30T04:41:33.824Z,77.63
2022-10-30T04:44:14.706Z,77.14
2022-10-30T04:46:41.331Z,76.48
2022-10-30T04:49:10.268Z,76.61
2022-10-30T04:51:37.892Z,76.32
2022-10-30T04:54:24.934Z,75.84
2022-10-30T04:57:15.555Z,76.12
2022-10-30T04:59:48.929Z,76.35
2022-10-30T05:02:16.060Z,76.47
2022-10-30T05:04:56.057Z,76.70
2022-10-30T05:08:21.575Z,76.75
2022-10-30T05:11:12.230Z,76.45
2022-10-30T05:13:43.693Z,76.15
2022-10-30T05:16:13.304Z,76.08
2022-10-30T05:18:40.496Z,76.76
2022-10-30T05:21:07.197Z,77.65
2022-10-30T05:23:38.542Z,77.53
2022-10-30T05:26:32.106Z,77.68
2022-10-30T05:29:01.589Z,77.14
2022-10-30T05:31:35.738Z,77.25
2022-10-30T05:34:07.320Z,77.37
2022-10-30T05:36:37.236Z,77.70
2022-10-30T05:39:04.300Z,77.48
2022-10-30T05:41:35.139Z,77.59
2022-10-30T05:44:02.682Z,77.54
2022-10-30T05:46:29.699Z,77.36
2022-10-30T05:49:05.640Z,77.59
2022-10-30T05:51:38.013Z,77.69
2022-10-30T05:54:08.467Z,77.58
2022-10-30T05:56:37.876Z,77.56
2022-10-30T05:59:04.627Z,77.37
2022-10-30T06:01:31.423Z,76.63
2022-10-30T06:04:00.979Z,76.46
2022-10-30T06:06:27.660Z,76.25
2022-10-30T06:08:55.572Z,76.04
2022-10-30T06:11:35.048Z,76.06
2022-10-30T06:14:02.293Z,76.29
2022-10-30T06:16:39.561Z,76.41
2022-10-30T06:19:28.499Z,76.44
2022-10-30T06:22:11.952Z,76.60
2022-10-30T06:24:46.152Z,76.70
2022-10-30T06:27:27.869Z,76.71
2022-10-30T06:29:55.051Z,76.73
2022-10-30T06:32:22.345Z,77.56
2022-10-30T06:34:49.435Z,77.64
2022-10-30T06:37:17.890Z,77.52
2022-10-30T06:39:51.030Z,77.46
2022-10-30T06:42:54.767Z,77.52
2022-10-30T06:45:45.676Z,77.92
2022-10-30T06:48:29.902Z,77.62
2022-10-30T06:50:58.024Z,77.71
2022-10-30T06:53:26.166Z,77.70
2022-10-30T06:56:07.702Z,77.54
2022-10-30T06:59:08.303Z,77.89
2022-10-30T07:01:48.157Z,77.67
2022-10-30T07:04:17.419Z,77.13
2022-10-30T07:06:51.086Z,76.35
2022-10-30T07:09:29.531Z,75.87
2022-10-30T07:12:07.210Z,75.84
2022-10-30T07:14:41.823Z,75.60
2022-10-30T07:17:25.351Z,75.65
2022-10-30T07:19:57.049Z,75.64
2022-10-30T07:22:23.837Z,75.56
2022-10-30T07:24:58.110Z,75.19
2022-10-30T07:27:53.266Z,75.01
2022-10-30T07:30:28.689Z,74.61
2022-10-30T07:33:14.415Z,74.67
2022-10-30T07:36:16.165Z,74.13
2022-10-30T07:38:51.459Z,74.51
2022-10-30T07:41:43.659Z,74.54
2022-10-30T07:44:33.248Z,74.55
2022-10-30T07:47:13.061Z,74.52
2022-10-30T07:49:45.786Z,74.39
2022-10-30T07:52:17.150Z,74.08
2022-10-30T07:54:45.994Z,74.28
2022-10-30T07:57:40.163Z,72.96
2022-10-30T08:00:16.825Z,73.13
2022-10-30T08:02:56.810Z,73.87
2022-10-30T08:05:33.264Z,73.16
2022-10-30T08:08:09.612Z,73.48
2022-10-30T08:10:41.952Z,72.50
2022-10-30T08:13:08.905Z,72.71
2022-10-30T08:15:36.106Z,72.15
2022-10-30T08:18:03.522Z,72.05
2022-10-30T08:20:30.459Z,71.86
2022-10-30T08:22:59.749Z,71.54
2022-10-30T08:25:28.745Z,71.08
2022-10-30T08:28:02.054Z,71.55
2022-10-30T08:30:35.322Z,72.32
2022-10-30T08:33:08.402Z,71.66
2022-10-30T08:35:57.755Z,69.86
2022-10-30T08:38:30.409Z,70.76
2022-10-30T08:41:15.888Z,71.20
2022-10-30T08:43:48.915Z,71.02
2022-10-30T08:46:19.671Z,70.72
2022-10-30T08:48:46.662Z,70.27
2022-10-30T08:51:14.092Z,69.32
2022-10-30T08:53:44.394Z,69.49
2022-10-30T08:56:14.157Z,69.15
2022-10-30T08:59:10.258Z,69.07
2022-10-30T09:01:39.745Z,69.06
2022-10-30T09:04:18.704Z,68.89
2022-10-30T09:07:13.085Z,68.29
2022-10-30T09:10:02.205Z,68.78
2022-10-30T09:12:31.991Z,67.95
2022-10-30T09:15:03.926Z,67.57
2022-10-30T09:17:39.803Z,67.75
2022-10-30T09:20:07.162Z,65.86
2022-10-30T09:22:41.011Z,65.02
2022-10-30T09:25:11.163Z,67.54
2022-10-30T09:27:51.516Z,67.29
2022-10-30T09:30:21.399Z,67.99
2022-10-30T09:33:00.354Z,66.44
2022-10-30T09:35:54.647Z,64.76
2022-10-30T09:38:21.773Z,66.25
2022-10-30T09:41:03.261Z,65.90
2022-10-30T09:44:19.375Z,65.99
2022-10-30T09:47:13.548Z,64.80
2022-10-30T09:50:14.775Z,65.93
2022-10-30T09:53:02.661Z,64.95
2022-10-30T09:55:44.635Z,63.68
2022-10-30T09:58:28.212Z,63.07
2022-10-30T10:01:20.051Z,64.09
2022-10-30T10:04:00.119Z,63.47
2022-10-30T10:06:47.297Z,64.45
2022-10-30T10:09:33.487Z,64.07
2022-10-30T10:12:44.748Z,63.51
2022-10-30T10:15:19.912Z,64.42
2022-10-30T10:17:47.190Z,64.37
2022-10-30T10:20:17.563Z,63.77
2022-10-30T10:22:51.101Z,62.16
2022-10-30T10:25:20.076Z,64.25
2022-10-30T10:28:08.620Z,65.09
2022-10-30T10:30:45.642Z,64.38
2022-10-30T10:33:26.281Z,64.44
2022-10-30T10:36:00.506Z,61.58
2022-10-30T10:38:50.913Z,63.31
2022-10-30T10:41:32.741Z,63.38
2022-10-30T10:44:11.829Z,64.60
2022-10-30T10:46:48.265Z,65.83
2022-10-30T10:49:20.877Z,64.56
2022-10-30T10:52:09.854Z,66.10
2022-10-30T10:54:43.513Z,63.31
2022-10-30T10:57:17.862Z,62.51
2022-10-30T10:59:51.050Z,64.41
2022-10-30T11:02:23.847Z,62.16
2022-10-30T11:04:52.854Z,62.63
2022-10-30T11:07:22.743Z,61.54
2022-10-30T11:09:56.838Z,61.04
2022-10-30T11:12:30.882Z,60.75
2022-10-30T11:15:09.737Z,61.46
2022-10-30T11:17:43.036Z,63.71
2022-10-30T11:20:21.448Z,63.51
2022-10-30T11:22:51.232Z,61.71
2022-10-30T11:25:25.481Z,62.89
2022-10-30T11:27:59.622Z,62.79
2022-10-30T11:30:28.724Z,60.94
2022-10-30T11:32:57.210Z,61.04
2022-10-30T11:35:25.346Z,60.86
2022-10-30T11:38:26.954Z,59.90
2022-10-30T11:40:53.686Z,57.67
2022-10-30T11:43:33.147Z,60.46
2022-10-30T11:46:07.085Z,59.50
2022-10-30T11:48:42.275Z,56.60
2022-10-30T11:51:12.700Z,59.27
2022-10-30T11:53:43.725Z,62.55
2022-10-30T11:56:19.578Z,63.61
2022-10-30T11:58:51.775Z,63.56
2022-10-30T12:01:32.887Z,63.71
2022-10-30T12:04:15.745Z,64.61
2022-10-30T12:06:49.984Z,65.55
2022-10-30T12:09:21.844Z,65.28
2022-10-30T12:11:49.164Z,65.75
2022-10-30T12:14:22.098Z,66.23
2022-10-30T12:16:56.367Z,66.85
2022-10-30T12:19:25.846Z,67.52
2022-10-30T12:22:06.364Z,67.14
2022-10-30T12:24:44.747Z,66.78
2022-10-30T12:27:16.844Z,67.47
2022-10-30T12:30:12.878Z,67.35
2022-10-30T12:32:57.795Z,67.88
2022-10-30T12:35:41.285Z,67.58
2022-10-30T12:38:17.883Z,67.54
2022-10-30T12:40:56.490Z,68.49
2022-10-30T12:43:27.293Z,68.12
2022-10-30T12:46:14.462Z,67.72
2022-10-30T12:48:49.580Z,66.73
2022-10-30T12:51:43.331Z,68.14
2022-10-30T12:54:33.857Z,67.94
2022-10-30T12:57:22.019Z,67.67
2022-10-30T13:00:15.718Z,68.23
2022-10-30T13:03:06.796Z,69.03
2022-10-30T13:05:40.533Z,68.71
2022-10-30T13:08:15.214Z,68.91
2022-10-30T13:11:00.198Z,69.54
2022-10-30T13:13:48.811Z,68.85
2022-10-30T13:16:24.328Z,68.84
2022-10-30T13:18:51.722Z,69.17
2022-10-30T13:21:27.860Z,68.65
2022-10-30T13:24:06.642Z,68.46
2022-10-30T13:26:52.550Z,67.59
2022-10-30T13:29:19.064Z,67.09
2022-10-30T13:31:58.384Z,66.30
2022-10-30T13:34:43.769Z,65.83
2022-10-30T13:37:10.399Z,66.21
2022-10-30T13:39:40.475Z,65.85
2022-10-30T13:42:14.896Z,67.57
2022-10-30T13:44:56.762Z,67.49
2022-10-30T13:47:55.661Z,68.07
2022-10-30T13:50:29.585Z,68.25
2022-10-30T13:52:58.829Z,69.65
2022-10-30T13:55:29.579Z,68.77
2022-10-30T13:58:21.788Z,68.89
2022-10-30T14:01:13.184Z,69.51
2022-10-30T14:04:26.117Z,70.32
2022-10-30T14:07:23.985Z,70.71
2022-10-30T14:10:02.201Z,71.23
2022-10-30T14:12:52.370Z,70.46
2022-10-30T14:15:24.669Z,69.75
2022-10-30T14:18:13.279Z,69.87
2022-10-30T14:20:43.115Z,69.26
2022-10-30T14:23:23.678Z,69.32
2022-10-30T14:26:03.019Z,70.06
2022-10-30T14:28:30.455Z,70.49
2022-10-30T14:31:20.671Z,70.85
2022-10-30T14:33:51.239Z,71.20
2022-10-30T14:36:34.317Z,71.85
2022-10-30T14:39:10.604Z,72.18
2022-10-30T14:42:08.296Z,72.31
2022-10-30T14:45:00.813Z,72.63
2022-10-30T14:47:39.661Z,73.01
2022-10-30T14:50:26.949Z,73.51
2022-10-30T14:53:27.520Z,73.49
2022-10-30T14:58:42.588Z,73.97
2022-10-30T15:01:09.261Z,73.78
2022-10-30T15:04:01.411Z,73.34
2022-10-30T15:06:56.416Z,73.46
2022-10-30T15:09:38.817Z,73.23
2022-10-30T15:12:42.341Z,73.26
2022-10-30T15:15:14.497Z,73.52
2022-10-30T15:17:44.509Z,74.02
2022-10-30T15:20:34.297Z,74.48
2022-10-30T15:23:04.088Z,74.14
2022-10-30T15:25:37.512Z,73.98
2022-10-30T15:28:06.062Z,74.13
2022-10-30T15:30:39.328Z,74.46
2022-10-30T15:33:23.308Z,74.03
2022-10-30T15:35:49.908Z,74.47
2022-10-30T15:38:16.617Z,74.21
2022-10-30T15:40:43.407Z,74.15
2022-10-30T15:43:13.287Z,74.22
2022-10-30T15:45:42.093Z,74.47
2022-10-30T15:48:21.842Z,74.60
2022-10-30T15:51:15.450Z,74.84
2022-10-30T15:53:51.574Z,74.42
2022-10-30T15:56:44.434Z,74.54
2022-10-30T15:59:29.754Z,74.71
2022-10-30T16:02:00.861Z,74.78
2022-10-30T16:04:37.776Z,74.68
2022-10-30T16:07:18.610Z,74.78
2022-10-30T16:09:59.391Z,75.03
2022-10-30T16:12:34.946Z,75.00
2022-10-30T16:15:09.231Z,74.50
2022-10-30T16:17:36.001Z,74.54
2022-10-30T16:20:04.703Z,74.80
2022-10-30T16:22:34.732Z,74.53
2022-10-30T16:25:01.965Z,74.66
2022-10-30T16:27:28.793Z,74.68
2022-10-30T16:30:00.093Z,74.36
2022-10-30T16:32:31.248Z,74.39
2022-10-30T16:34:59.798Z,74.57
2022-10-30T16:37:39.737Z,74.44
2022-10-30T16:40:09.490Z,74.74
2022-10-30T16:42:36.276Z,74.93
2022-10-30T16:45:12.096Z,75.00
2022-10-30T16:47:40.974Z,74.88
2022-10-30T16:50:11.022Z,74.94
2022-10-30T16:52:37.771Z,75.06
2022-10-30T16:55:06.856Z,75.03
2022-10-30T16:57:36.565Z,75.08
2022-10-30T17:00:05.166Z,75.16
2022-10-30T17:02:36.342Z,74.75
2022-10-30T17:05:34.089Z,74.96
2022-10-30T17:08:04.413Z,75.02
2022-10-30T17:10:43.441Z,75.16
2022-10-30T17:13:38.101Z,75.14
2022-10-30T17:16:25.546Z,75.21
2022-10-30T17:18:57.192Z,75.34
2022-10-30T17:21:27.749Z,75.79
2022-10-30T17:23:59.133Z,75.70
2022-10-30T17:26:27.396Z,75.52
2022-10-30T17:28:54.188Z,75.58
2022-10-30T17:31:42.766Z,75.63
2022-10-30T17:34:20.560Z,75.44
2022-10-30T17:36:48.532Z,75.64
2022-10-30T17:39:15.551Z,75.29
2022-10-30T17:41:42.873Z,75.37
2022-10-30T17:44:17.952Z,75.17
2022-10-30T17:46:44.522Z,75.32
2022-10-30T17:49:24.162Z,75.16
2022-10-30T17:51:50.978Z,75.29
2022-10-30T17:54:21.203Z,75.34
2022-10-30T17:56:51.053Z,75.39
2022-10-30T18:00:01.326Z,75.45
2022-10-30T18:02:51.026Z,75.60
2022-10-30T18:05:33.800Z,75.51
2022-10-30T18:08:00.555Z,75.90
2022-10-30T18:10:27.450Z,76.19
2022-10-30T18:12:54.093Z,76.33
2022-10-30T18:16:02.575Z,76.18
2022-10-30T18:18:31.944Z,76.43
2022-10-30T18:20:58.630Z,76.55
2022-10-30T18:23:51.467Z,76.32
2022-10-30T18:26:20.951Z,76.48
2022-10-30T18:28:48.715Z,76.43
2022-10-30T18:31:19.470Z,76.40
2022-10-30T18:33:46.398Z,77.02
2022-10-30T18:36:21.885Z,76.47
2022-10-30T18:38:49.377Z,76.04
2022-10-30T18:41:19.196Z,76.36
2022-10-30T18:43:47.267Z,76.57
2022-10-30T18:46:15.212Z,76.50
2022-10-30T18:48:42.124Z,76.32
2022-10-30T18:51:35.706Z,75.74
2022-10-30T18:54:02.930Z,75.88
2022-10-30T18:56:33.641Z,76.54
2022-10-30T18:59:02.524Z,76.03
2022-10-30T19:01:33.253Z,75.70
2022-10-30T19:04:04.647Z,75.37
2022-10-30T19:06:32.964Z,75.18
2022-10-30T19:08:59.780Z,75.53
2022-10-30T19:11:28.255Z,75.25
2022-10-30T19:13:57.184Z,75.93
2022-10-30T19:16:25.556Z,76.15
2022-10-30T19:18:52.701Z,76.16
2022-10-30T19:21:28.199Z,76.80
2022-10-30T19:23:56.367Z,77.21
2022-10-30T19:26:23.162Z,77.17
2022-10-30T19:28:50.098Z,77.47
2022-10-30T19:31:18.653Z,77.22
2022-10-30T19:33:46.203Z,76.91
2022-10-30T19:36:34.487Z,76.72
2022-10-30T19:39:08.968Z,77.04
2022-10-30T19:41:37.052Z,77.37
2022-10-30T19:44:04.421Z,76.91
2022-10-30T19:46:31.496Z,77.08
2022-10-30T19:48:59.541Z,76.98
2022-10-30T19:51:27.672Z,77.32
2022-10-30T19:53:55.001Z,76.65
2022-10-30T19:56:22.327Z,76.62
2022-10-30T19:58:49.532Z,77.01
2022-10-30T20:01:16.699Z,77.26
2022-10-30T20:03:43.732Z,77.27
2022-10-30T20:06:32.203Z,77.47
2022-10-30T20:09:11.890Z,78.03
2022-10-30T20:11:38.598Z,78.20
2022-10-30T20:14:05.391Z,78.24
2022-10-30T20:16:32.123Z,78.56
2022-10-30T20:18:58.854Z,78.41
2022-10-30T20:21:27.526Z,78.50
2022-10-30T20:23:54.279Z,78.49
2022-10-30T20:26:27.409Z,78.35
2022-10-30T20:28:55.331Z,77.79
2022-10-30T20:31:22.137Z,77.98
2022-10-30T20:33:48.927Z,78.11
2022-10-30T20:36:16.023Z,78.12
2022-10-30T20:38:43.066Z,78.31
2022-10-30T20:41:23.067Z,78.26
2022-10-30T20:43:50.612Z,78.23
2022-10-30T20:58:53.151Z,78.31
2022-10-30T21:01:57.935Z,78.28
2022-10-30T21:04:24.840Z,78.28
2022-10-30T21:06:51.632Z,78.14
2022-10-30T21:13:48.600Z,78.65
2022-10-30T21:16:18.673Z,78.67
2022-10-30T21:26:45.511Z,78.30
2022-10-30T21:29:39.472Z,77.99
2022-10-30T21:32:32.180Z,78.13
2022-10-30T21:43:06.255Z,78.09
2022-10-30T21:52:43.679Z,77.59
2022-10-30T22:14:34.291Z,78.54
2022-10-30T22:17:01.150Z,78.69
2022-10-30T22:19:56.975Z,78.86
2022-10-30T22:22:37.182Z,78.34
2022-10-30T22:25:16.438Z,77.85
2022-10-30T22:27:47.194Z,77.94
2022-10-30T22:30:14.514Z,77.99
2022-10-30T22:32:44.972Z,78.48
2022-10-30T22:35:11.982Z,78.56
2022-10-30T22:37:44.498Z,78.53
2022-10-30T22:40:23.037Z,78.68
2022-10-30T22:43:15.907Z,78.75
2022-10-30T22:46:15.623Z,78.88
2022-10-30T22:49:21.066Z,78.66
2022-10-30T22:52:23.621Z,78.54
2022-10-30T22:55:26.487Z,78.20
2022-10-30T22:58:31.361Z,78.55
2022-10-30T23:01:24.818Z,78.47
2022-10-30T23:04:11.143Z,77.59
2022-10-30T23:06:58.647Z,77.55
2022-10-30T23:09:37.126Z,78.30
2022-10-30T23:19:07.247Z,77.22
2022-10-30T23:22:01.835Z,78.21
2022-10-30T23:24:56.584Z,77.94
2022-10-30T23:28:31.127Z,77.67
2022-10-30T23:31:56.150Z,77.18
2022-10-30T23:34:33.271Z,77.31
2022-10-30T23:37:10.224Z,78.06
2022-10-30T23:39:47.186Z,78.13
2022-10-30T23:42:48.495Z,78.06
2022-10-30T23:45:31.756Z,77.74
2022-10-30T23:48:09.750Z,77.48
2022-10-30T23:53:32.463Z,77.88
2022-10-30T23:56:09.202Z,78.09
2022-10-30T23:59:33.738Z,78.49
